Airfield :







YOU CAN JOIN US ON...

 
LOGIN :

Register | Disclaimer

   EN    FR    IT 

 









Legend :    VFR   Marginal VFR   IFR   Intensive IFR   Very Intensive IFR
Visi :
Ceiling :
>= 8 km
>= 3000ft
5 to 8 km
1000 to 3000 ft
1500m to 5 km
500 to 1000 ft
800 to 1500m
200 to 500 ft
< 800m
< 200 ft
Symbols :   Thunderstorms  Fog  Heavy snow  Heavy precipitations  Wind > 20 kt






- Airport Elevation : 76 ft
- IATA code : PWM


KPWM - Portland International Jetport

CURRENT METAR :
  • 150951Z 34005KT 10SM FEW150 FEW250 13/12 A3003 RMK AO2 SLP167 T01280117

EXPIRED METARs :
  • 150851Z 00000KT 10SM FEW150 FEW250 13/12 A3002 RMK AO2 SLP165 T01330117 56002
  • 150751Z AUTO 29004KT 10SM CLR 13/11 A3002 RMK AO2 SLP166 T01330111

TAF KPWM
Valid from the 15 at 09:00 until the 16 at 06:00 UTC


150907Z 1509/1606 VRB03KT P6SM FEW250
FM151600 15007KT P6SM FEW050 BKN250
FM160000 VRB03KT P6SM SCT150 BKN250
KZBW FIR / North America



MET'MAP, your aeronautical weather chart ! - Copyright ORBIFLY December 2007 - Disclaimer

ORBIFLY MET'MAP TEAM :

Programming & Development : Alexandra Zaïnal
Original concept : Baudouin d'Aumeries
Technical & hardware support : Manuel Goepfert
Assistance : Marc-Olivier Méhu




SOURCES & CREDITS :

   NOAA